createdAt,value
2022-09-09T00:00:26.718Z,85.23
2022-09-09T00:03:13.858Z,85.45
2022-09-09T00:06:08.713Z,85.65
2022-09-09T00:08:50.688Z,85.02
2022-09-09T00:11:30.744Z,84.76
2022-09-09T00:14:04.482Z,84.97
2022-09-09T00:16:37.228Z,85.37
2022-09-09T00:19:18.999Z,85.38
2022-09-09T00:22:15.187Z,85.41
2022-09-09T00:24:44.338Z,85.36
2022-09-09T00:27:39.377Z,85.04
2022-09-09T00:30:27.029Z,85.28
2022-09-09T00:33:02.783Z,85.05
2022-09-09T00:35:37.878Z,84.89
2022-09-09T00:38:15.050Z,84.71
2022-09-09T00:40:57.296Z,84.69
2022-09-09T00:43:31.383Z,84.65
2022-09-09T00:46:21.131Z,85.34
2022-09-09T00:49:15.004Z,85.50
2022-09-09T00:52:09.249Z,85.24
2022-09-09T00:54:46.924Z,85.01
2022-09-09T00:57:19.256Z,84.43
2022-09-09T00:59:53.500Z,84.84
2022-09-09T01:02:45.380Z,84.72
2022-09-09T01:05:23.769Z,84.98
2022-09-09T01:07:55.049Z,85.29
2022-09-09T01:10:38.697Z,85.38
2022-09-09T01:13:15.949Z,85.39
2022-09-09T01:15:45.641Z,85.46
2022-09-09T01:18:18.305Z,85.38
2022-09-09T01:21:02.461Z,85.74
2022-09-09T01:23:29.419Z,85.57
2022-09-09T01:26:22.237Z,85.73
2022-09-09T01:28:53.763Z,85.64
2022-09-09T01:31:33.988Z,85.36
2022-09-09T01:34:01.056Z,85.58
2022-09-09T01:36:47.484Z,85.38
2022-09-09T01:39:15.246Z,85.44
2022-09-09T01:41:44.089Z,85.55
2022-09-09T01:44:14.187Z,86.21
2022-09-09T01:46:44.787Z,86.04
2022-09-09T01:49:20.426Z,86.09
2022-09-09T01:51:51.319Z,85.92
2022-09-09T01:54:21.391Z,86.44
2022-09-09T01:57:09.717Z,86.58
2022-09-09T01:59:53.417Z,86.44
2022-09-09T02:02:31.925Z,86.51
2022-09-09T02:05:22.747Z,86.76
2022-09-09T02:07:54.278Z,86.87
2022-09-09T02:10:38.869Z,86.96
2022-09-09T02:13:26.239Z,87.14
2022-09-09T02:16:09.399Z,87.09
2022-09-09T02:18:38.828Z,86.59
2022-09-09T02:21:08.016Z,86.83
2022-09-09T02:23:37.159Z,86.71
2022-09-09T02:26:11.476Z,87.18
2022-09-09T02:28:40.570Z,86.81
2022-09-09T02:31:07.920Z,86.89
2022-09-09T02:33:46.902Z,87.42
2022-09-09T02:36:17.458Z,87.17
2022-09-09T02:38:51.833Z,87.16
2022-09-09T02:41:36.262Z,87.47
2022-09-09T02:44:07.211Z,86.88
2022-09-09T02:47:05.260Z,86.60
2022-09-09T02:49:51.153Z,86.96
2022-09-09T02:52:27.821Z,86.98
2022-09-09T02:55:05.602Z,86.74
2022-09-09T02:57:34.304Z,86.83
2022-09-09T03:00:02.836Z,87.14
2022-09-09T03:02:31.878Z,86.95
2022-09-09T03:05:04.638Z,86.89
2022-09-09T03:07:31.717Z,86.73
2022-09-09T03:09:59.897Z,86.73
2022-09-09T03:12:28.430Z,85.99
2022-09-09T03:14:55.498Z,86.66
2022-09-09T03:17:24.638Z,87.10
2022-09-09T03:19:56.202Z,87.18
2022-09-09T03:22:23.348Z,86.94
2022-09-09T03:24:50.471Z,87.51
2022-09-09T03:27:18.612Z,87.73
2022-09-09T03:29:46.285Z,87.30
2022-09-09T03:32:20.122Z,87.62
2022-09-09T03:34:48.600Z,87.96
2022-09-09T03:37:16.628Z,87.62
2022-09-09T03:39:43.764Z,87.45
2022-09-09T03:42:19.846Z,86.91
2022-09-09T03:44:51.548Z,87.35
2022-09-09T03:47:22.974Z,87.66
2022-09-09T03:49:52.717Z,87.72
2022-09-09T03:52:23.530Z,87.42
2022-09-09T03:54:52.557Z,87.43
2022-09-09T03:57:20.527Z,87.61
2022-09-09T03:59:47.717Z,87.25
2022-09-09T04:02:15.333Z,87.29
2022-09-09T04:04:42.585Z,87.54
2022-09-09T04:07:09.953Z,87.47
2022-09-09T04:09:37.017Z,87.23
2022-09-09T04:12:04.127Z,87.31
2022-09-09T04:14:31.717Z,87.88
2022-09-09T04:17:00.687Z,87.41
2022-09-09T04:19:27.676Z,87.66
2022-09-09T04:21:54.818Z,88.17
2022-09-09T04:24:23.359Z,88.04
2022-09-09T04:26:51.250Z,88.58
2022-09-09T04:29:18.477Z,88.45
2022-09-09T04:31:45.839Z,88.56
2022-09-09T04:34:13.761Z,88.94
2022-09-09T04:36:41.678Z,88.85
2022-09-09T04:39:09.677Z,89.15
2022-09-09T04:41:36.747Z,89.26
2022-09-09T04:44:04.878Z,89.07
2022-09-09T04:46:35.478Z,88.66
2022-09-09T04:49:02.666Z,88.29
2022-09-09T04:51:32.372Z,88.20
2022-09-09T04:53:59.723Z,88.20
2022-09-09T04:56:28.134Z,88.59
2022-09-09T04:58:59.582Z,88.67
2022-09-09T05:01:40.589Z,88.79
2022-09-09T05:04:08.021Z,88.69
2022-09-09T05:06:35.258Z,88.78
2022-09-09T05:09:02.881Z,89.02
2022-09-09T05:11:33.806Z,89.07
2022-09-09T05:14:06.719Z,88.74
2022-09-09T05:16:34.357Z,88.80
2022-09-09T05:19:01.532Z,88.97
2022-09-09T05:21:37.049Z,89.05
2022-09-09T05:24:04.279Z,88.91
2022-09-09T05:26:32.805Z,88.97
2022-09-09T05:29:01.645Z,88.76
2022-09-09T05:31:32.071Z,88.99
2022-09-09T05:34:02.578Z,88.79
2022-09-09T05:36:29.816Z,88.82
2022-09-09T05:38:57.588Z,88.80
2022-09-09T05:41:26.944Z,88.78
2022-09-09T05:43:56.217Z,88.75
2022-09-09T05:46:26.338Z,88.91
2022-09-09T05:48:55.222Z,88.86
2022-09-09T05:51:31.353Z,88.91
2022-09-09T05:54:02.247Z,89.08
2022-09-09T05:56:33.670Z,89.10
2022-09-09T05:59:02.118Z,89.09
2022-09-09T06:01:32.129Z,89.35
2022-09-09T06:04:00.115Z,89.34
2022-09-09T06:06:38.067Z,89.55
2022-09-09T06:09:11.662Z,89.52
2022-09-09T06:11:42.382Z,89.57
2022-09-09T06:14:10.445Z,89.64
2022-09-09T06:16:44.325Z,89.21
2022-09-09T06:19:19.355Z,89.46
2022-09-09T06:21:46.401Z,89.53
2022-09-09T06:24:15.081Z,89.63
2022-09-09T06:26:42.937Z,90.42
2022-09-09T06:29:13.637Z,90.17
2022-09-09T06:31:42.683Z,90.32
2022-09-09T06:34:16.410Z,90.29
2022-09-09T06:36:47.650Z,90.31
2022-09-09T06:39:16.607Z,89.96
2022-09-09T06:41:44.205Z,90.14
2022-09-09T06:44:40.267Z,89.95
2022-09-09T06:47:12.322Z,89.88
2022-09-09T06:49:41.019Z,90.05
2022-09-09T06:52:10.900Z,89.85
2022-09-09T06:54:38.863Z,89.98
2022-09-09T06:57:33.787Z,89.68
2022-09-09T06:59:56.829Z,90.11
2022-09-09T07:02:24.949Z,90.03
2022-09-09T07:04:52.842Z,90.04
2022-09-09T07:07:20.147Z,90.11
2022-09-09T07:09:47.448Z,90.21
2022-09-09T07:12:14.922Z,90.34
2022-09-09T07:14:49.402Z,90.61
2022-09-09T07:17:16.557Z,90.20
2022-09-09T07:19:44.411Z,90.45
2022-09-09T07:22:11.920Z,90.59
2022-09-09T07:24:39.781Z,90.35
2022-09-09T07:27:07.582Z,90.11
2022-09-09T07:29:36.329Z,90.11
2022-09-09T07:32:05.490Z,90.27
2022-09-09T07:34:36.542Z,90.01
2022-09-09T07:37:04.016Z,89.52
2022-09-09T07:39:32.694Z,89.84
2022-09-09T07:42:00.086Z,89.58
2022-09-09T07:44:28.214Z,88.97
2022-09-09T07:47:05.304Z,88.91
2022-09-09T07:49:40.036Z,88.55
2022-09-09T07:52:08.955Z,88.07
2022-09-09T07:54:38.389Z,88.35
2022-09-09T07:57:06.979Z,88.71
2022-09-09T07:59:36.368Z,89.00
2022-09-09T08:02:04.296Z,88.61
2022-09-09T08:04:33.951Z,88.50
2022-09-09T08:07:02.462Z,88.79
2022-09-09T08:09:34.820Z,88.95
2022-09-09T08:12:14.299Z,88.71
2022-09-09T08:14:41.770Z,88.97
2022-09-09T08:17:09.223Z,88.44
2022-09-09T08:19:37.123Z,87.61
2022-09-09T08:22:09.722Z,87.18
2022-09-09T08:24:40.467Z,86.56
2022-09-09T08:27:08.297Z,84.65
2022-09-09T08:29:35.755Z,83.36
2022-09-09T08:32:03.429Z,82.67
2022-09-09T08:34:32.486Z,82.24
2022-09-09T08:37:03.849Z,82.47
2022-09-09T08:39:38.542Z,82.53
2022-09-09T08:42:27.737Z,81.73
2022-09-09T08:45:17.387Z,81.51
2022-09-09T08:47:53.746Z,81.80
2022-09-09T08:50:33.700Z,81.03
2022-09-09T08:53:09.928Z,79.22
2022-09-09T08:55:57.277Z,78.47
2022-09-09T08:58:36.482Z,77.05
2022-09-09T09:01:18.617Z,77.27
2022-09-09T09:04:16.400Z,76.05
2022-09-09T09:07:14.741Z,76.02
2022-09-09T09:10:30.473Z,76.33
2022-09-09T09:12:59.402Z,77.23
2022-09-09T09:15:32.748Z,77.70
2022-09-09T09:18:00.661Z,78.00
2022-09-09T09:21:13.168Z,77.54
2022-09-09T09:23:56.465Z,75.78
2022-09-09T09:26:27.719Z,75.17
2022-09-09T09:28:58.441Z,75.01
2022-09-09T09:31:28.132Z,76.46
2022-09-09T09:33:57.410Z,77.26
2022-09-09T09:36:42.566Z,76.18
2022-09-09T09:42:21.676Z,76.46
2022-09-09T09:44:51.251Z,75.09
2022-09-09T09:47:23.106Z,73.48
2022-09-09T09:50:06.214Z,72.85
2022-09-09T09:52:38.132Z,71.68
2022-09-09T09:55:15.149Z,70.61
2022-09-09T09:57:45.894Z,70.43
2022-09-09T10:00:18.617Z,69.45
2022-09-09T10:02:53.787Z,69.16
2022-09-09T10:05:29.080Z,69.37
2022-09-09T10:08:20.332Z,68.30
2022-09-09T10:11:02.532Z,68.33
2022-09-09T10:13:44.729Z,68.16
2022-09-09T10:16:40.086Z,68.97
2022-09-09T10:19:14.188Z,69.23
2022-09-09T10:22:07.876Z,72.10
2022-09-09T10:24:50.410Z,72.02
2022-09-09T10:27:38.241Z,71.31
2022-09-09T10:30:20.079Z,70.78
2022-09-09T10:32:53.368Z,70.46
2022-09-09T10:35:29.146Z,68.79
2022-09-09T10:38:21.778Z,68.51
2022-09-09T10:40:56.599Z,68.28
2022-09-09T10:43:42.108Z,66.79
2022-09-09T10:46:38.083Z,67.19
2022-09-09T10:49:39.150Z,64.01
2022-09-09T10:52:36.877Z,64.07
2022-09-09T10:55:15.028Z,62.85
2022-09-09T10:57:51.196Z,62.76
2022-09-09T11:00:25.642Z,61.33
2022-09-09T11:03:19.895Z,60.93
2022-09-09T11:06:25.894Z,60.16
2022-09-09T11:08:57.061Z,59.68
2022-09-09T11:11:40.414Z,60.51
2022-09-09T11:14:21.299Z,60.30
2022-09-09T11:16:55.362Z,59.68
2022-09-09T11:19:35.409Z,60.00
2022-09-09T11:22:26.567Z,60.00
2022-09-09T11:25:01.495Z,60.71
2022-09-09T11:27:40.536Z,59.80
2022-09-09T11:30:44.101Z,59.76
2022-09-09T11:33:07.686Z,60.95
2022-09-09T11:35:54.963Z,61.07
2022-09-09T11:38:22.349Z,61.05
2022-09-09T11:41:00.747Z,60.99
2022-09-09T11:43:54.192Z,60.21
2022-09-09T11:46:34.909Z,60.31
2022-09-09T11:49:04.980Z,59.85
2022-09-09T11:51:33.990Z,59.47
2022-09-09T11:54:24.621Z,58.78
2022-09-09T11:56:51.786Z,59.20
2022-09-09T11:59:30.367Z,58.70
2022-09-09T12:02:20.110Z,58.54
2022-09-09T12:05:10.061Z,59.63
2022-09-09T12:07:55.060Z,60.62
2022-09-09T12:10:27.908Z,62.09
2022-09-09T12:12:55.094Z,62.50
2022-09-09T12:15:30.374Z,63.45
2022-09-09T12:18:03.804Z,63.38
2022-09-09T12:20:32.416Z,63.89
2022-09-09T12:23:20.431Z,64.67
2022-09-09T12:26:05.078Z,65.64
2022-09-09T12:29:00.923Z,66.11
2022-09-09T12:31:48.611Z,66.07
2022-09-09T12:34:33.566Z,66.35
2022-09-09T12:37:07.540Z,65.88
2022-09-09T12:39:39.783Z,65.77
2022-09-09T12:42:18.248Z,65.49
2022-09-09T12:45:04.367Z,65.65
2022-09-09T12:47:41.667Z,65.81
2022-09-09T12:50:27.004Z,66.25
2022-09-09T12:53:00.829Z,66.60
2022-09-09T12:55:34.844Z,67.48
2022-09-09T12:58:07.277Z,67.63
2022-09-09T13:00:35.819Z,67.63
2022-09-09T13:03:18.500Z,67.73
2022-09-09T13:05:47.971Z,68.04
2022-09-09T13:08:19.670Z,68.43
2022-09-09T13:11:02.902Z,67.88
2022-09-09T13:13:39.898Z,67.38
2022-09-09T13:16:19.405Z,67.54
2022-09-09T13:18:47.056Z,67.30
2022-09-09T13:21:15.451Z,67.79
2022-09-09T13:23:42.865Z,68.22
2022-09-09T13:26:27.468Z,68.08
2022-09-09T13:28:55.952Z,68.64
2022-09-09T13:31:37.264Z,69.07
2022-09-09T13:34:36.850Z,69.12
2022-09-09T13:37:07.188Z,68.96
2022-09-09T13:39:38.221Z,69.30
2022-09-09T13:42:08.291Z,69.38
2022-09-09T13:44:40.470Z,69.59
2022-09-09T13:47:23.891Z,69.27
2022-09-09T13:49:50.987Z,69.18
2022-09-09T13:52:20.069Z,69.78
2022-09-09T13:54:52.277Z,69.19
2022-09-09T13:57:21.300Z,69.56
2022-09-09T14:00:05.445Z,68.81
2022-09-09T14:02:32.791Z,68.67
2022-09-09T14:04:59.914Z,68.28
2022-09-09T14:07:28.022Z,68.11
2022-09-09T14:09:55.038Z,68.61
2022-09-09T14:12:22.186Z,68.26
2022-09-09T14:14:49.230Z,68.14
2022-09-09T14:17:16.370Z,68.60
2022-09-09T14:19:43.936Z,68.70
2022-09-09T14:22:11.074Z,69.07
2022-09-09T14:24:38.280Z,69.02
2022-09-09T14:27:05.309Z,69.35
2022-09-09T14:29:32.412Z,69.28
2022-09-09T14:32:02.065Z,69.34
2022-09-09T14:34:29.158Z,69.62
2022-09-09T14:36:56.993Z,69.86
2022-09-09T14:39:23.951Z,70.38
2022-09-09T14:41:51.167Z,70.33
2022-09-09T14:44:18.331Z,70.69
2022-09-09T14:46:45.667Z,70.64
2022-09-09T14:49:13.981Z,71.58
2022-09-09T14:51:41.144Z,72.08
2022-09-09T14:54:08.119Z,72.54
2022-09-09T14:56:35.934Z,73.10
2022-09-09T14:59:03.701Z,73.53
2022-09-09T15:01:32.107Z,74.16
2022-09-09T15:04:01.686Z,74.46
2022-09-09T15:06:32.828Z,74.87
2022-09-09T15:09:01.507Z,75.38
2022-09-09T15:11:31.979Z,76.40
2022-09-09T15:13:59.787Z,77.22
2022-09-09T15:16:29.228Z,78.63
2022-09-09T15:18:59.490Z,79.55
2022-09-09T15:21:27.600Z,80.77
2022-09-09T15:23:55.113Z,80.75
2022-09-09T15:26:22.515Z,82.25
2022-09-09T15:28:50.935Z,83.67
2022-09-09T15:31:22.156Z,84.15
2022-09-09T15:33:53.569Z,84.19
2022-09-09T15:36:26.010Z,84.50
2022-09-09T15:38:54.154Z,85.03
2022-09-09T15:41:23.160Z,85.36
2022-09-09T15:43:53.011Z,85.36
2022-09-09T15:46:33.700Z,85.95
2022-09-09T15:49:11.980Z,86.12
2022-09-09T15:51:44.004Z,85.96
2022-09-09T15:54:19.679Z,86.18
2022-09-09T15:56:49.949Z,86.49
2022-09-09T15:59:17.238Z,86.12
2022-09-09T16:01:45.312Z,87.18
2022-09-09T16:04:12.880Z,87.23
2022-09-09T16:06:40.388Z,87.68
2022-09-09T16:09:08.973Z,88.24
2022-09-09T16:11:38.361Z,87.71
2022-09-09T16:14:07.761Z,87.61
2022-09-09T16:16:36.458Z,87.10
2022-09-09T16:19:08.976Z,87.24
2022-09-09T16:21:39.304Z,87.44
2022-09-09T16:24:07.780Z,87.87
2022-09-09T16:26:37.693Z,87.68
2022-09-09T16:29:05.572Z,88.10
2022-09-09T16:31:35.879Z,88.38
2022-09-09T16:34:04.691Z,88.61
2022-09-09T16:36:33.519Z,88.82
2022-09-09T16:39:03.263Z,89.43
2022-09-09T16:41:31.295Z,89.81
2022-09-09T16:44:06.632Z,90.31
2022-09-09T16:46:37.522Z,90.25
2022-09-09T16:49:06.897Z,90.11
2022-09-09T16:51:37.539Z,90.22
2022-09-09T16:54:09.801Z,90.36
2022-09-09T16:56:42.381Z,90.09
2022-09-09T16:59:17.951Z,89.86
2022-09-09T17:01:47.137Z,89.62
2022-09-09T17:04:21.941Z,89.12
2022-09-09T17:06:50.982Z,88.48
2022-09-09T17:09:19.292Z,88.07
2022-09-09T17:11:46.892Z,86.47
2022-09-09T17:14:17.929Z,86.06
2022-09-09T17:16:45.658Z,85.73
2022-09-09T17:19:13.813Z,86.08
2022-09-09T17:21:54.950Z,86.28
2022-09-09T17:24:30.313Z,87.01
2022-09-09T17:26:58.741Z,86.84
2022-09-09T17:29:26.341Z,86.98
2022-09-09T17:31:53.702Z,87.00
2022-09-09T17:34:20.953Z,86.84
2022-09-09T17:36:48.179Z,86.78
2022-09-09T17:39:15.327Z,87.04
2022-09-09T17:41:42.843Z,87.23
2022-09-09T17:44:10.953Z,87.53
2022-09-09T17:46:41.768Z,88.17
2022-09-09T17:49:11.767Z,88.43
2022-09-09T17:51:39.347Z,88.49
2022-09-09T17:54:10.248Z,88.34
2022-09-09T17:56:38.813Z,88.42
2022-09-09T17:59:08.388Z,88.75
2022-09-09T18:01:39.700Z,89.06
2022-09-09T18:04:09.171Z,89.59
2022-09-09T18:06:41.836Z,89.50
2022-09-09T18:09:13.450Z,89.93
2022-09-09T18:11:47.020Z,90.19
2022-09-09T18:14:20.574Z,90.51
2022-09-09T18:16:49.143Z,90.49
2022-09-09T18:19:19.230Z,90.54
2022-09-09T18:21:47.248Z,90.71
2022-09-09T18:24:16.281Z,90.68
2022-09-09T18:26:44.487Z,91.02
2022-09-09T18:29:14.557Z,91.25
2022-09-09T18:31:42.817Z,91.38
2022-09-09T18:34:13.100Z,91.18
2022-09-09T18:36:49.605Z,91.63
2022-09-09T18:39:18.928Z,91.31
2022-09-09T18:41:52.390Z,91.63
2022-09-09T18:44:22.513Z,91.54
2022-09-09T18:46:50.689Z,92.01
2022-09-09T18:49:19.143Z,91.88
2022-09-09T18:51:47.337Z,91.73
2022-09-09T18:54:21.039Z,91.75
2022-09-09T18:56:49.174Z,91.83
2022-09-09T18:59:20.099Z,92.29
2022-09-09T19:01:48.764Z,92.42
2022-09-09T19:04:16.914Z,92.35
2022-09-09T19:06:47.702Z,92.06
2022-09-09T19:09:17.116Z,92.24
2022-09-09T19:11:44.722Z,92.22
2022-09-09T19:14:14.946Z,92.21
2022-09-09T19:16:42.542Z,92.39
2022-09-09T19:19:14.398Z,92.81
2022-09-09T19:21:42.562Z,92.38
2022-09-09T19:24:13.756Z,92.73
2022-09-09T19:26:47.480Z,92.69
2022-09-09T19:29:21.191Z,93.12
2022-09-09T19:32:14.982Z,92.82
2022-09-09T19:34:36.665Z,93.44
2022-09-09T19:37:04.148Z,93.49
2022-09-09T19:39:33.935Z,93.56
2022-09-09T19:42:01.489Z,93.91
2022-09-09T19:44:28.770Z,94.12
2022-09-09T19:46:55.932Z,93.78
2022-09-09T19:49:23.270Z,93.89
2022-09-09T19:51:50.783Z,94.04
2022-09-09T19:54:17.999Z,94.09
2022-09-09T19:56:45.341Z,94.43
2022-09-09T19:59:15.705Z,94.49
2022-09-09T20:01:44.946Z,94.46
2022-09-09T20:04:14.102Z,94.04
2022-09-09T20:06:44.241Z,94.52
2022-09-09T20:09:17.442Z,94.33
2022-09-09T20:11:46.507Z,94.02
2022-09-09T20:14:14.921Z,94.16
2022-09-09T20:16:42.969Z,94.39
2022-09-09T20:19:12.739Z,94.02
2022-09-09T20:21:50.428Z,94.12
2022-09-09T20:24:19.983Z,93.87
2022-09-09T20:26:48.345Z,94.35
2022-09-09T20:29:19.335Z,93.92
2022-09-09T20:31:47.026Z,94.04
2022-09-09T20:34:19.410Z,94.04
2022-09-09T20:36:47.264Z,94.23
2022-09-09T20:39:17.588Z,93.91
2022-09-09T20:41:46.440Z,94.07
2022-09-09T20:44:16.898Z,93.74
2022-09-09T20:46:48.250Z,93.78
2022-09-09T20:49:18.044Z,93.61
2022-09-09T20:51:46.632Z,93.88
2022-09-09T20:54:19.938Z,93.91
2022-09-09T20:56:48.381Z,94.21
2022-09-09T20:59:20.199Z,94.00
2022-09-09T21:01:47.990Z,93.91
2022-09-09T21:04:17.629Z,93.48
2022-09-09T21:06:45.654Z,93.72
2022-09-09T21:09:14.362Z,93.61
2022-09-09T21:11:42.453Z,93.88
2022-09-09T21:14:09.935Z,93.80
2022-09-09T21:16:37.030Z,94.08
2022-09-09T21:19:04.665Z,94.02
2022-09-09T21:21:31.851Z,94.08
2022-09-09T21:24:00.702Z,94.08
2022-09-09T21:26:28.649Z,93.56
2022-09-09T21:28:56.403Z,93.95
2022-09-09T21:31:27.861Z,93.55
2022-09-09T21:33:57.117Z,94.15
2022-09-09T21:36:24.940Z,93.91
2022-09-09T21:38:52.051Z,94.07
2022-09-09T21:41:19.816Z,93.76
2022-09-09T21:43:51.578Z,93.87
2022-09-09T21:46:18.727Z,93.85
2022-09-09T21:48:46.101Z,94.40
2022-09-09T21:51:16.069Z,94.28
2022-09-09T21:53:43.969Z,94.51
2022-09-09T21:56:16.770Z,94.39
2022-09-09T21:58:43.809Z,94.37
2022-09-09T22:01:16.770Z,94.53
2022-09-09T22:03:45.049Z,94.83
2022-09-09T22:06:15.299Z,94.53
2022-09-09T22:08:42.973Z,94.58
2022-09-09T22:11:22.492Z,94.83
2022-09-09T22:13:50.427Z,94.69
2022-09-09T22:16:20.133Z,94.96
2022-09-09T22:18:59.316Z,95.42
2022-09-09T22:21:29.507Z,95.31
2022-09-09T22:24:01.830Z,95.23
2022-09-09T22:26:32.382Z,95.05
2022-09-09T22:28:59.595Z,95.29
2022-09-09T22:31:28.346Z,95.44
2022-09-09T22:33:55.973Z,95.45
2022-09-09T22:36:24.295Z,95.66
2022-09-09T22:38:52.057Z,96.14
2022-09-09T22:41:19.762Z,96.18
2022-09-09T22:43:47.089Z,95.76
2022-09-09T22:46:14.983Z,95.83
2022-09-09T22:48:42.584Z,95.94
2022-09-09T22:51:14.425Z,96.17
2022-09-09T22:53:42.837Z,96.37
2022-09-09T22:56:17.376Z,97.03
2022-09-09T22:58:46.436Z,96.63
2022-09-09T23:01:17.507Z,96.91
2022-09-09T23:03:46.452Z,96.83
2022-09-09T23:06:20.425Z,97.30
2022-09-09T23:08:50.132Z,97.09
2022-09-09T23:11:17.736Z,97.17
2022-09-09T23:13:53.677Z,97.52
2022-09-09T23:16:24.788Z,97.49
2022-09-09T23:18:52.976Z,97.28
2022-09-09T23:21:20.447Z,97.32
2022-09-09T23:23:47.678Z,97.39
2022-09-09T23:26:21.207Z,97.67
2022-09-09T23:28:50.319Z,97.96
2022-09-09T23:31:20.752Z,97.83
2022-09-09T23:33:48.250Z,98.02
2022-09-09T23:36:17.663Z,97.91
2022-09-09T23:38:45.172Z,97.94
2022-09-09T23:41:15.152Z,98.18
2022-09-09T23:43:44.655Z,97.92
2022-09-09T23:46:14.121Z,97.95
2022-09-09T23:48:42.342Z,97.87
2022-09-09T23:51:17.639Z,97.77
2022-09-09T23:53:49.065Z,97.96
2022-09-09T23:56:16.106Z,98.06
2022-09-09T23:58:43.274Z,98.28
